sensor_id;sensor_type;location;lat;lon;timestamp;pressure;altitude;pressure_sealevel;temperature;humidity
8101;BME280;4093;53.470;9.832;2023-03-14T00:01:15;98727.09;;;13.33;87.90
8101;BME280;4093;53.470;9.832;2023-03-14T00:03:44;98727.09;;;13.05;89.09
8101;BME280;4093;53.470;9.832;2023-03-14T00:06:12;98740.72;;;13.23;88.32
8101;BME280;4093;53.470;9.832;2023-03-14T00:08:42;98743.34;;;12.64;90.19
8101;BME280;4093;53.470;9.832;2023-03-14T00:11:12;98758.19;;;12.90;89.67
8101;BME280;4093;53.470;9.832;2023-03-14T00:13:40;98757.75;;;12.98;90.53
8101;BME280;4093;53.470;9.832;2023-03-14T00:16:10;98754.19;;;12.85;90.66
8101;BME280;4093;53.470;9.832;2023-03-14T00:18:38;98751.56;;;13.01;90.12
8101;BME280;4093;53.470;9.832;2023-03-14T00:21:08;98767.63;;;13.36;88.35
8101;BME280;4093;53.470;9.832;2023-03-14T00:23:37;98753.84;;;13.05;89.85
8101;BME280;4093;53.470;9.832;2023-03-14T00:26:09;98750.09;;;13.39;89.06
8101;BME280;4093;53.470;9.832;2023-03-14T00:28:38;98738.66;;;13.56;87.83
8101;BME280;4093;53.470;9.832;2023-03-14T00:31:07;98722.81;;;13.47;88.10
8101;BME280;4093;53.470;9.832;2023-03-14T00:33:35;98721.97;;;13.46;88.18
8101;BME280;4093;53.470;9.832;2023-03-14T00:36:05;98709.25;;;13.56;87.35
8101;BME280;4093;53.470;9.832;2023-03-14T00:38:36;98702.91;;;13.33;88.04
8101;BME280;4093;53.470;9.832;2023-03-14T00:41:04;98696.50;;;13.24;88.67
8101;BME280;4093;53.470;9.832;2023-03-14T00:43:34;98701.41;;;13.14;89.43
8101;BME280;4093;53.470;9.832;2023-03-14T00:46:02;98671.56;;;12.93;88.62
8101;BME280;4093;53.470;9.832;2023-03-14T00:48:31;98704.38;;;13.23;89.17
8101;BME280;4093;53.470;9.832;2023-03-14T00:50:59;98708.94;;;13.05;89.25
8101;BME280;4093;53.470;9.832;2023-03-14T00:53:27;98704.38;;;13.37;88.47
8101;BME280;4093;53.470;9.832;2023-03-14T00:55:55;98693.13;;;13.22;88.85
8101;BME280;4093;53.470;9.832;2023-03-14T00:58:24;98697.16;;;13.13;88.80
8101;BME280;4093;53.470;9.832;2023-03-14T01:00:53;98693.34;;;13.33;88.16
8101;BME280;4093;53.470;9.832;2023-03-14T01:03:21;98703.06;;;13.44;87.58
8101;BME280;4093;53.470;9.832;2023-03-14T01:05:50;98714.22;;;13.32;88.89
8101;BME280;4093;53.470;9.832;2023-03-14T01:08:18;98716.41;;;13.38;87.72
8101;BME280;4093;53.470;9.832;2023-03-14T01:10:46;98724.38;;;13.63;87.26
8101;BME280;4093;53.470;9.832;2023-03-14T01:13:17;98723.13;;;13.28;89.17
8101;BME280;4093;53.470;9.832;2023-03-14T01:15:45;98721.91;;;13.33;88.29
8101;BME280;4093;53.470;9.832;2023-03-14T01:18:15;98713.44;;;13.44;87.68
8101;BME280;4093;53.470;9.832;2023-03-14T01:20:43;98675.50;;;13.29;86.79
8101;BME280;4093;53.470;9.832;2023-03-14T01:23:14;98713.44;;;13.44;87.61
8101;BME280;4093;53.470;9.832;2023-03-14T01:25:42;98715.41;;;13.40;87.96
8101;BME280;4093;53.470;9.832;2023-03-14T01:28:10;98700.75;;;13.54;87.45
8101;BME280;4093;53.470;9.832;2023-03-14T01:30:38;98686.06;;;13.67;86.72
8101;BME280;4093;53.470;9.832;2023-03-14T01:33:06;98665.16;;;13.41;87.47
8101;BME280;4093;53.470;9.832;2023-03-14T01:35:36;98665.75;;;13.32;88.08
8101;BME280;4093;53.470;9.832;2023-03-14T01:38:04;98656.81;;;13.36;88.53
8101;BME280;4093;53.470;9.832;2023-03-14T01:40:32;98636.47;;;13.57;87.27
8101;BME280;4093;53.470;9.832;2023-03-14T01:43:06;98626.38;;;13.26;87.67
8101;BME280;4093;53.470;9.832;2023-03-14T01:46:14;98630.41;;;13.15;88.44
8101;BME280;4093;53.470;9.832;2023-03-14T01:48:53;98627.88;;;13.42;87.57
8101;BME280;4093;53.470;9.832;2023-03-14T01:51:29;98627.94;;;13.55;86.35
8101;BME280;4093;53.470;9.832;2023-03-14T01:54:06;98637.56;;;13.26;88.20
8101;BME280;4093;53.470;9.832;2023-03-14T01:56:37;98647.53;;;13.47;87.13
8101;BME280;4093;53.470;9.832;2023-03-14T01:59:06;98649.44;;;13.02;89.36
8101;BME280;4093;53.470;9.832;2023-03-14T02:01:38;98618.00;;;13.06;87.71
8101;BME280;4093;53.470;9.832;2023-03-14T02:04:09;98633.16;;;12.57;89.47
8101;BME280;4093;53.470;9.832;2023-03-14T02:06:47;98620.66;;;13.19;87.99
8101;BME280;4093;53.470;9.832;2023-03-14T02:09:16;98604.72;;;13.39;86.65
8101;BME280;4093;53.470;9.832;2023-03-14T02:11:45;98587.78;;;13.19;87.25
8101;BME280;4093;53.470;9.832;2023-03-14T02:14:20;98570.22;;;13.10;87.80
8101;BME280;4093;53.470;9.832;2023-03-14T02:16:51;98500.72;;;12.74;87.03
8101;BME280;4093;53.470;9.832;2023-03-14T02:19:26;98544.66;;;12.90;86.88
8101;BME280;4093;53.470;9.832;2023-03-14T02:22:05;98553.38;;;12.89;87.03
8101;BME280;4093;53.470;9.832;2023-03-14T02:24:41;98569.97;;;12.72;88.74
8101;BME280;4093;53.470;9.832;2023-03-14T02:27:16;98567.25;;;13.02;86.82
8101;BME280;4093;53.470;9.832;2023-03-14T02:29:49;98567.22;;;12.61;88.34
8101;BME280;4093;53.470;9.832;2023-03-14T02:32:23;98576.84;;;12.59;89.95
8101;BME280;4093;53.470;9.832;2023-03-14T02:35:02;98541.50;;;12.99;87.12
8101;BME280;4093;53.470;9.832;2023-03-14T02:37:36;98568.25;;;12.72;89.13
8101;BME280;4093;53.470;9.832;2023-03-14T02:40:07;98574.16;;;12.74;88.80
8101;BME280;4093;53.470;9.832;2023-03-14T02:42:38;98580.41;;;12.99;87.06
8101;BME280;4093;53.470;9.832;2023-03-14T02:45:36;98568.88;;;12.62;89.10
8101;BME280;4093;53.470;9.832;2023-03-14T02:48:08;98570.22;;;13.10;87.86
8101;BME280;4093;53.470;9.832;2023-03-14T02:50:37;98575.84;;;12.76;89.58
8101;BME280;4093;53.470;9.832;2023-03-14T02:53:06;98578.59;;;12.58;90.67
8101;BME280;4093;53.470;9.832;2023-03-14T02:55:34;98583.00;;;12.99;89.14
8101;BME280;4093;53.470;9.832;2023-03-14T02:58:05;98591.69;;;13.27;88.20
8101;BME280;4093;53.470;9.832;2023-03-14T03:00:33;98581.59;;;13.08;88.97
8101;BME280;4093;53.470;9.832;2023-03-14T03:03:02;98573.34;;;12.60;89.49
8101;BME280;4093;53.470;9.832;2023-03-14T03:05:32;98557.69;;;12.61;89.76
8101;BME280;4093;53.470;9.832;2023-03-14T03:08:01;98576.94;;;13.13;87.98
8101;BME280;4093;53.470;9.832;2023-03-14T03:10:29;98569.91;;;12.59;90.98
8101;BME280;4093;53.470;9.832;2023-03-14T03:12:59;98573.06;;;12.79;90.18
8101;BME280;4093;53.470;9.832;2023-03-14T03:15:30;98573.75;;;13.22;87.79
8101;BME280;4093;53.470;9.832;2023-03-14T03:17:59;98570.59;;;13.04;87.77
8101;BME280;4093;53.470;9.832;2023-03-14T03:20:27;98569.91;;;13.29;87.64
8101;BME280;4093;53.470;9.832;2023-03-14T03:22:55;98556.34;;;13.24;87.54
8101;BME280;4093;53.470;9.832;2023-03-14T03:25:22;98550.41;;;13.36;86.72
8101;BME280;4093;53.470;9.832;2023-03-14T03:27:51;98548.13;;;13.32;86.30
8101;BME280;4093;53.470;9.832;2023-03-14T03:30:22;98515.31;;;12.89;87.99
8101;BME280;4093;53.470;9.832;2023-03-14T03:32:52;98542.38;;;13.27;86.96
8101;BME280;4093;53.470;9.832;2023-03-14T03:35:20;98540.28;;;13.59;86.03
8101;BME280;4093;53.470;9.832;2023-03-14T03:37:48;98515.72;;;13.37;86.80
8101;BME280;4093;53.470;9.832;2023-03-14T03:40:17;98502.50;;;13.28;85.73
8101;BME280;4093;53.470;9.832;2023-03-14T03:42:45;98514.41;;;13.45;85.76
8101;BME280;4093;53.470;9.832;2023-03-14T03:45:13;98508.16;;;12.93;87.34
8101;BME280;4093;53.470;9.832;2023-03-14T03:47:41;98487.69;;;13.15;86.91
8101;BME280;4093;53.470;9.832;2023-03-14T03:50:11;98490.00;;;12.93;87.21
8101;BME280;4093;53.470;9.832;2023-03-14T03:52:39;98511.34;;;13.11;86.83
8101;BME280;4093;53.470;9.832;2023-03-14T03:55:08;98507.00;;;13.11;85.97
8101;BME280;4093;53.470;9.832;2023-03-14T03:57:36;98520.00;;;13.24;86.42
8101;BME280;4093;53.470;9.832;2023-03-14T04:00:06;98497.84;;;13.33;85.90
8101;BME280;4093;53.470;9.832;2023-03-14T04:02:36;98504.75;;;13.19;85.50
8101;BME280;4093;53.470;9.832;2023-03-14T04:05:05;98516.75;;;13.35;85.89
8101;BME280;4093;53.470;9.832;2023-03-14T04:07:35;98499.78;;;13.02;86.49
8101;BME280;4093;53.470;9.832;2023-03-14T04:10:04;98507.63;;;13.42;85.17
8101;BME280;4093;53.470;9.832;2023-03-14T04:12:34;98488.09;;;13.36;84.69
8101;BME280;4093;53.470;9.832;2023-03-14T04:15:03;98506.19;;;13.24;85.51
8101;BME280;4093;53.470;9.832;2023-03-14T04:17:31;98504.69;;;13.34;84.34
8101;BME280;4093;53.470;9.832;2023-03-14T04:19:58;98500.44;;;13.06;86.18
8101;BME280;4093;53.470;9.832;2023-03-14T04:22:26;98497.03;;;12.91;86.46
8101;BME280;4093;53.470;9.832;2023-03-14T04:24:55;98509.06;;;13.33;85.24
8101;BME280;4093;53.470;9.832;2023-03-14T04:27:23;98510.63;;;12.82;86.61
8101;BME280;4093;53.470;9.832;2023-03-14T04:29:51;98473.78;;;13.04;85.76
8101;BME280;4093;53.470;9.832;2023-03-14T04:32:20;98502.75;;;13.10;86.05
8101;BME280;4093;53.470;9.832;2023-03-14T04:34:49;98495.81;;;12.96;86.44
8101;BME280;4093;53.470;9.832;2023-03-14T04:37:17;98496.59;;;13.26;85.01
8101;BME280;4093;53.470;9.832;2023-03-14T04:39:46;98497.56;;;13.10;84.73
8101;BME280;4093;53.470;9.832;2023-03-14T04:42:16;98496.66;;;13.64;83.05
8101;BME280;4093;53.470;9.832;2023-03-14T04:44:44;98498.88;;;13.30;85.20
8101;BME280;4093;53.470;9.832;2023-03-14T04:47:13;98494.75;;;13.53;83.38
8101;BME280;4093;53.470;9.832;2023-03-14T04:49:43;98490.44;;;13.67;83.02
8101;BME280;4093;53.470;9.832;2023-03-14T04:52:11;98485.13;;;13.55;83.56
8101;BME280;4093;53.470;9.832;2023-03-14T04:54:39;98478.38;;;13.65;83.19
8101;BME280;4093;53.470;9.832;2023-03-14T04:57:07;98482.94;;;13.49;83.64
8101;BME280;4093;53.470;9.832;2023-03-14T04:59:37;98479.44;;;13.76;83.13
8101;BME280;4093;53.470;9.832;2023-03-14T05:02:04;98478.88;;;13.45;83.23
8101;BME280;4093;53.470;9.832;2023-03-14T05:04:39;98468.47;;;13.32;84.32
8101;BME280;4093;53.470;9.832;2023-03-14T05:07:07;98475.19;;;13.35;84.58
8101;BME280;4093;53.470;9.832;2023-03-14T05:09:38;98475.00;;;13.38;83.87
8101;BME280;4093;53.470;9.832;2023-03-14T05:12:07;98480.28;;;13.76;83.59
8101;BME280;4093;53.470;9.832;2023-03-14T05:14:36;98486.28;;;13.77;83.44
8101;BME280;4093;53.470;9.832;2023-03-14T05:17:05;98480.06;;;13.92;83.67
8101;BME280;4093;53.470;9.832;2023-03-14T05:19:35;98482.13;;;13.61;85.01
8101;BME280;4093;53.470;9.832;2023-03-14T05:22:03;98463.22;;;13.72;85.05
8101;BME280;4093;53.470;9.832;2023-03-14T05:24:31;98473.38;;;13.88;84.71
8101;BME280;4093;53.470;9.832;2023-03-14T05:27:01;98481.63;;;14.07;84.36
8101;BME280;4093;53.470;9.832;2023-03-14T05:29:30;98475.06;;;14.02;84.48
8101;BME280;4093;53.470;9.832;2023-03-14T05:31:59;98473.38;;;13.88;85.34
8101;BME280;4093;53.470;9.832;2023-03-14T05:34:27;98482.88;;;13.89;85.21
8101;BME280;4093;53.470;9.832;2023-03-14T05:36:56;98480.25;;;13.51;86.29
8101;BME280;4093;53.470;9.832;2023-03-14T05:39:24;98472.31;;;13.27;87.74
8101;BME280;4093;53.470;9.832;2023-03-14T05:41:53;98465.47;;;13.11;88.46
8101;BME280;4093;53.470;9.832;2023-03-14T05:44:22;98465.47;;;12.84;89.61
8101;BME280;4093;53.470;9.832;2023-03-14T05:46:51;98463.22;;;13.19;87.83
8101;BME280;4093;53.470;9.832;2023-03-14T05:49:20;98460.41;;;12.83;90.00
8101;BME280;4093;53.470;9.832;2023-03-14T05:51:48;98457.84;;;12.95;90.19
8101;BME280;4093;53.470;9.832;2023-03-14T05:54:16;98458.00;;;13.07;89.58
8101;BME280;4093;53.470;9.832;2023-03-14T05:56:43;98461.22;;;13.10;88.32
8101;BME280;4093;53.470;9.832;2023-03-14T05:59:11;98426.91;;;12.65;90.13
8101;BME280;4093;53.470;9.832;2023-03-14T06:01:41;98453.88;;;12.90;89.83
8101;BME280;4093;53.470;9.832;2023-03-14T06:04:09;98448.72;;;12.48;90.79
8101;BME280;4093;53.470;9.832;2023-03-14T06:06:39;98445.56;;;12.85;89.61
8101;BME280;4093;53.470;9.832;2023-03-14T06:09:06;98458.25;;;12.89;89.86
8101;BME280;4093;53.470;9.832;2023-03-14T06:11:35;98467.13;;;12.72;90.59
8101;BME280;4093;53.470;9.832;2023-03-14T06:14:03;98467.06;;;12.60;90.20
8101;BME280;4093;53.470;9.832;2023-03-14T06:16:33;98476.22;;;12.51;91.13
8101;BME280;4093;53.470;9.832;2023-03-14T06:19:01;98457.16;;;12.38;90.13
8101;BME280;4093;53.470;9.832;2023-03-14T06:21:30;98475.22;;;12.81;88.88
8101;BME280;4093;53.470;9.832;2023-03-14T06:24:01;98471.13;;;12.49;89.19
8101;BME280;4093;53.470;9.832;2023-03-14T06:26:30;98477.31;;;12.47;88.52
8101;BME280;4093;53.470;9.832;2023-03-14T06:28:57;98475.88;;;12.43;88.29
8101;BME280;4093;53.470;9.832;2023-03-14T06:31:29;98487.97;;;12.98;85.69
8101;BME280;4093;53.470;9.832;2023-03-14T06:33:57;98472.53;;;13.09;84.90
8101;BME280;4093;53.470;9.832;2023-03-14T06:36:30;98489.34;;;13.43;83.50
8101;BME280;4093;53.470;9.832;2023-03-14T06:39:00;98484.91;;;13.46;83.36
8101;BME280;4093;53.470;9.832;2023-03-14T06:41:30;98483.56;;;13.65;81.64
8101;BME280;4093;53.470;9.832;2023-03-14T06:43:59;98498.53;;;14.00;80.71
8101;BME280;4093;53.470;9.832;2023-03-14T06:46:27;98489.50;;;13.68;80.87
8101;BME280;4093;53.470;9.832;2023-03-14T06:48:55;98489.31;;;13.96;81.01
8101;BME280;4093;53.470;9.832;2023-03-14T06:51:24;98483.47;;;13.67;80.95
8101;BME280;4093;53.470;9.832;2023-03-14T06:53:52;98497.34;;;13.13;83.49
8101;BME280;4093;53.470;9.832;2023-03-14T06:56:24;98493.78;;;13.02;83.27
8101;BME280;4093;53.470;9.832;2023-03-14T06:58:53;98488.06;;;12.69;84.48
8101;BME280;4093;53.470;9.832;2023-03-14T07:01:25;98503.13;;;13.31;82.16
8101;BME280;4093;53.470;9.832;2023-03-14T07:03:55;98497.91;;;13.58;81.70
8101;BME280;4093;53.470;9.832;2023-03-14T07:06:25;98503.47;;;13.12;82.92
8101;BME280;4093;53.470;9.832;2023-03-14T07:08:53;98501.38;;;13.05;84.59
8101;BME280;4093;53.470;9.832;2023-03-14T07:11:22;98506.41;;;13.48;82.50
8101;BME280;4093;53.470;9.832;2023-03-14T07:13:51;98506.00;;;13.00;84.59
8101;BME280;4093;53.470;9.832;2023-03-14T07:16:18;98487.09;;;12.70;86.34
8101;BME280;4093;53.470;9.832;2023-03-14T07:18:47;98531.16;;;13.12;86.83
8101;BME280;4093;53.470;9.832;2023-03-14T07:21:15;98489.91;;;12.53;87.84
8101;BME280;4093;53.470;9.832;2023-03-14T07:23:44;98530.16;;;13.29;85.91
8101;BME280;4093;53.470;9.832;2023-03-14T07:26:13;98522.16;;;13.17;85.50
8101;BME280;4093;53.470;9.832;2023-03-14T07:28:46;98526.91;;;12.84;86.45
8101;BME280;4093;53.470;9.832;2023-03-14T07:31:15;98534.63;;;13.39;84.74
8101;BME280;4093;53.470;9.832;2023-03-14T07:33:43;98522.78;;;13.35;84.43
8101;BME280;4093;53.470;9.832;2023-03-14T07:36:11;98515.03;;;13.48;83.12
8101;BME280;4093;53.470;9.832;2023-03-14T07:38:40;98527.09;;;13.75;82.46
8101;BME280;4093;53.470;9.832;2023-03-14T07:41:10;98511.91;;;13.56;82.02
8101;BME280;4093;53.470;9.832;2023-03-14T07:43:38;98520.47;;;13.71;81.77
8101;BME280;4093;53.470;9.832;2023-03-14T07:46:09;98518.47;;;13.61;81.74
8101;BME280;4093;53.470;9.832;2023-03-14T07:48:36;98520.13;;;13.23;82.85
8101;BME280;4093;53.470;9.832;2023-03-14T07:51:05;98522.06;;;13.46;82.17
8101;BME280;4093;53.470;9.832;2023-03-14T07:53:34;98489.25;;;12.91;83.24
8101;BME280;4093;53.470;9.832;2023-03-14T07:56:03;98519.59;;;12.76;84.21
8101;BME280;4093;53.470;9.832;2023-03-14T07:58:33;98532.00;;;13.12;83.30
8101;BME280;4093;53.470;9.832;2023-03-14T08:01:02;98520.56;;;13.02;84.04
8101;BME280;4093;53.470;9.832;2023-03-14T08:03:32;98523.06;;;13.71;82.10
8101;BME280;4093;53.470;9.832;2023-03-14T08:06:00;98522.13;;;13.72;81.66
8101;BME280;4093;53.470;9.832;2023-03-14T08:08:28;98519.13;;;13.91;80.24
8101;BME280;4093;53.470;9.832;2023-03-14T08:11:02;98509.63;;;14.41;78.99
8101;BME280;4093;53.470;9.832;2023-03-14T08:13:31;98507.00;;;14.66;77.02
8101;BME280;4093;53.470;9.832;2023-03-14T08:15:59;98506.72;;;13.56;80.33
8101;BME280;4093;53.470;9.832;2023-03-14T08:18:28;98512.78;;;14.33;79.72
8101;BME280;4093;53.470;9.832;2023-03-14T08:20:58;98512.66;;;13.71;81.41
8101;BME280;4093;53.470;9.832;2023-03-14T08:23:26;98515.94;;;13.47;83.46
8101;BME280;4093;53.470;9.832;2023-03-14T08:25:54;98518.69;;;13.58;82.52
8101;BME280;4093;53.470;9.832;2023-03-14T08:28:24;98504.28;;;13.27;83.98
8101;BME280;4093;53.470;9.832;2023-03-14T08:30:57;98494.78;;;13.66;81.87
8101;BME280;4093;53.470;9.832;2023-03-14T08:33:26;98500.28;;;13.61;83.34
8101;BME280;4093;53.470;9.832;2023-03-14T08:35:55;98514.75;;;14.04;81.52
8101;BME280;4093;53.470;9.832;2023-03-14T08:38:25;98508.09;;;14.12;81.50
8101;BME280;4093;53.470;9.832;2023-03-14T08:40:59;98492.72;;;13.71;82.70
8101;BME280;4093;53.470;9.832;2023-03-14T08:43:31;98501.13;;;13.75;82.68
8101;BME280;4093;53.470;9.832;2023-03-14T08:45:59;98467.75;;;13.43;82.96
8101;BME280;4093;53.470;9.832;2023-03-14T08:48:28;98484.09;;;13.96;80.95
8101;BME280;4093;53.470;9.832;2023-03-14T08:51:04;98503.44;;;13.92;81.91
8101;BME280;4093;53.470;9.832;2023-03-14T08:53:34;98513.47;;;13.58;83.15
8101;BME280;4093;53.470;9.832;2023-03-14T08:56:02;98513.22;;;13.36;83.89
8101;BME280;4093;53.470;9.832;2023-03-14T08:58:32;98507.22;;;13.35;83.78
8101;BME280;4093;53.470;9.832;2023-03-14T09:01:00;98502.88;;;13.49;84.79
8101;BME280;4093;53.470;9.832;2023-03-14T09:03:28;98512.88;;;13.68;83.68
8101;BME280;4093;53.470;9.832;2023-03-14T09:06:01;98515.28;;;14.22;82.75
8101;BME280;4093;53.470;9.832;2023-03-14T09:08:30;98495.63;;;13.67;83.71
8101;BME280;4093;53.470;9.832;2023-03-14T09:10:59;98510.16;;;13.82;84.24
8101;BME280;4093;53.470;9.832;2023-03-14T09:13:28;98508.53;;;13.94;84.90
8101;BME280;4093;53.470;9.832;2023-03-14T09:15:56;98510.63;;;13.76;84.82
8101;BME280;4093;53.470;9.832;2023-03-14T09:18:27;98510.22;;;14.07;84.03
8101;BME280;4093;53.470;9.832;2023-03-14T09:20:55;98516.72;;;13.75;85.49
8101;BME280;4093;53.470;9.832;2023-03-14T09:23:24;98508.66;;;13.12;88.10
8101;BME280;4093;53.470;9.832;2023-03-14T09:25:54;98518.84;;;13.15;88.96
8101;BME280;4093;53.470;9.832;2023-03-14T09:28:26;98496.13;;;13.46;86.98
8101;BME280;4093;53.470;9.832;2023-03-14T09:30:54;98532.72;;;13.69;85.51
8101;BME280;4093;53.470;9.832;2023-03-14T09:33:22;98543.38;;;13.24;88.15
8101;BME280;4093;53.470;9.832;2023-03-14T09:35:52;98558.84;;;13.93;86.80
8101;BME280;4093;53.470;9.832;2023-03-14T09:38:23;98555.50;;;13.24;91.76
8101;BME280;4093;53.470;9.832;2023-03-14T09:40:52;98560.81;;;13.49;91.89
8101;BME280;4093;53.470;9.832;2023-03-14T09:43:22;98561.84;;;13.47;91.59
8101;BME280;4093;53.470;9.832;2023-03-14T09:45:52;98575.97;;;13.01;91.46
8101;BME280;4093;53.470;9.832;2023-03-14T09:48:22;98582.63;;;13.05;92.65
8101;BME280;4093;53.470;9.832;2023-03-14T09:50:53;98588.56;;;12.93;92.61
8101;BME280;4093;53.470;9.832;2023-03-14T09:53:25;98643.66;;;12.25;89.89
8101;BME280;4093;53.470;9.832;2023-03-14T09:55:57;98670.66;;;11.75;89.55
8101;BME280;4093;53.470;9.832;2023-03-14T09:58:29;98679.19;;;11.29;88.55
8101;BME280;4093;53.470;9.832;2023-03-14T10:01:01;98699.81;;;11.31;88.59
8101;BME280;4093;53.470;9.832;2023-03-14T10:03:32;98723.13;;;10.11;90.21
8101;BME280;4093;53.470;9.832;2023-03-14T10:06:02;98733.28;;;9.60;91.91
8101;BME280;4093;53.470;9.832;2023-03-14T10:08:31;98719.47;;;9.61;89.99
8101;BME280;4093;53.470;9.832;2023-03-14T10:11:02;98745.81;;;9.30;91.36
8101;BME280;4093;53.470;9.832;2023-03-14T10:13:30;98762.22;;;9.09;92.07
8101;BME280;4093;53.470;9.832;2023-03-14T10:16:01;98773.31;;;9.50;89.33
8101;BME280;4093;53.470;9.832;2023-03-14T10:18:31;98787.63;;;9.37;89.36
8101;BME280;4093;53.470;9.832;2023-03-14T10:21:04;98788.84;;;9.48;87.40
8101;BME280;4093;53.470;9.832;2023-03-14T10:23:35;98800.25;;;8.83;88.63
8101;BME280;4093;53.470;9.832;2023-03-14T10:26:07;98817.81;;;8.75;88.62
8101;BME280;4093;53.470;9.832;2023-03-14T10:28:39;98825.00;;;8.67;88.01
8101;BME280;4093;53.470;9.832;2023-03-14T10:31:10;98829.75;;;8.55;88.29
8101;BME280;4093;53.470;9.832;2023-03-14T10:33:38;98815.19;;;8.54;88.34
8101;BME280;4093;53.470;9.832;2023-03-14T10:36:16;98854.66;;;8.97;88.48
8101;BME280;4093;53.470;9.832;2023-03-14T10:38:45;98854.84;;;8.50;88.86
8101;BME280;4093;53.470;9.832;2023-03-14T10:41:18;98870.16;;;8.75;88.64
8101;BME280;4093;53.470;9.832;2023-03-14T10:43:49;98875.34;;;8.08;90.10
8101;BME280;4093;53.470;9.832;2023-03-14T10:46:20;98905.72;;;8.22;89.24
8101;BME280;4093;53.470;9.832;2023-03-14T10:48:52;98910.19;;;8.17;89.79
8101;BME280;4093;53.470;9.832;2023-03-14T10:51:26;98929.84;;;8.19;88.51
8101;BME280;4093;53.470;9.832;2023-03-14T10:53:59;98941.56;;;7.79;89.81
8101;BME280;4093;53.470;9.832;2023-03-14T10:56:34;98956.84;;;8.07;89.71
8101;BME280;4093;53.470;9.832;2023-03-14T10:59:04;98941.28;;;7.63;88.73
8101;BME280;4093;53.470;9.832;2023-03-14T11:01:41;98971.09;;;7.69;89.40
8101;BME280;4093;53.470;9.832;2023-03-14T11:04:22;98973.44;;;7.75;89.32
8101;BME280;4093;53.470;9.832;2023-03-14T11:06:56;98978.09;;;7.39;89.06
8101;BME280;4093;53.470;9.832;2023-03-14T11:09:33;99002.84;;;7.43;89.99
8101;BME280;4093;53.470;9.832;2023-03-14T11:12:17;99025.03;;;7.71;89.77
8101;BME280;4093;53.470;9.832;2023-03-14T11:14:55;99016.59;;;7.67;86.95
8101;BME280;4093;53.470;9.832;2023-03-14T11:17:34;99027.56;;;7.97;87.07
8101;BME280;4093;53.470;9.832;2023-03-14T11:20:22;99038.91;;;7.67;87.06
8101;BME280;4093;53.470;9.832;2023-03-14T11:22:58;99065.78;;;7.83;86.98
8101;BME280;4093;53.470;9.832;2023-03-14T11:25:33;99068.09;;;7.65;87.37
8101;BME280;4093;53.470;9.832;2023-03-14T11:28:13;99091.41;;;7.86;84.70
8101;BME280;4093;53.470;9.832;2023-03-14T11:30:52;99106.50;;;7.72;86.73
8101;BME280;4093;53.470;9.832;2023-03-14T11:33:24;99113.59;;;7.37;86.35
8101;BME280;4093;53.470;9.832;2023-03-14T11:36:06;99119.00;;;7.56;85.86
8101;BME280;4093;53.470;9.832;2023-03-14T11:38:38;99117.59;;;7.72;84.77
8101;BME280;4093;53.470;9.832;2023-03-14T11:41:14;99124.13;;;7.82;84.67
8101;BME280;4093;53.470;9.832;2023-03-14T11:43:48;99141.03;;;8.16;84.24
8101;BME280;4093;53.470;9.832;2023-03-14T11:46:20;99126.72;;;7.82;83.67
8101;BME280;4093;53.470;9.832;2023-03-14T11:48:58;99133.06;;;8.49;82.52
8101;BME280;4093;53.470;9.832;2023-03-14T11:51:31;99135.81;;;8.44;82.11
8101;BME280;4093;53.470;9.832;2023-03-14T11:54:04;99137.06;;;9.04;79.84
8101;BME280;4093;53.470;9.832;2023-03-14T11:56:39;99130.75;;;7.89;82.22
8101;BME280;4093;53.470;9.832;2023-03-14T11:59:17;99153.31;;;8.33;81.29
8101;BME280;4093;53.470;9.832;2023-03-14T12:01:53;99139.72;;;7.78;79.50
8101;BME280;4093;53.470;9.832;2023-03-14T12:04:35;99141.72;;;7.96;79.38
8101;BME280;4093;53.470;9.832;2023-03-14T12:07:17;99154.53;;;8.23;79.13
8101;BME280;4093;53.470;9.832;2023-03-14T12:09:49;99179.03;;;8.34;79.72
8101;BME280;4093;53.470;9.832;2023-03-14T12:12:24;99164.03;;;8.21;78.55
8101;BME280;4093;53.470;9.832;2023-03-14T12:14:55;99150.59;;;7.86;78.49
8101;BME280;4093;53.470;9.832;2023-03-14T12:17:25;99181.81;;;8.28;78.64
8101;BME280;4093;53.470;9.832;2023-03-14T12:20:06;99179.25;;;8.28;78.12
8101;BME280;4093;53.470;9.832;2023-03-14T12:22:43;99193.72;;;8.57;77.70
8101;BME280;4093;53.470;9.832;2023-03-14T12:25:15;99160.28;;;8.31;78.17
8101;BME280;4093;53.470;9.832;2023-03-14T12:30:39;99189.09;;;8.42;78.86
8101;BME280;4093;53.470;9.832;2023-03-14T12:33:31;99206.88;;;8.75;78.47
8101;BME280;4093;53.470;9.832;2023-03-14T12:36:12;99200.69;;;9.27;76.59
8101;BME280;4093;53.470;9.832;2023-03-14T12:39:04;99200.84;;;8.51;77.63
8101;BME280;4093;53.470;9.832;2023-03-14T12:41:38;99212.25;;;8.69;77.76
8101;BME280;4093;53.470;9.832;2023-03-14T12:44:45;99225.25;;;8.13;80.77
8101;BME280;4093;53.470;9.832;2023-03-14T12:47:46;99250.13;;;7.85;81.03
8101;BME280;4093;53.470;9.832;2023-03-14T12:50:26;99267.00;;;7.94;83.88
8101;BME280;4093;53.470;9.832;2023-03-14T12:53:14;99275.84;;;8.14;83.67
8101;BME280;4093;53.470;9.832;2023-03-14T12:55:49;99290.44;;;8.41;82.04
8101;BME280;4093;53.470;9.832;2023-03-14T12:58:29;99291.81;;;8.51;83.46
8101;BME280;4093;53.470;9.832;2023-03-14T13:01:00;99285.47;;;7.79;84.78
8101;BME280;4093;53.470;9.832;2023-03-14T13:03:39;99300.56;;;7.91;81.80
8101;BME280;4093;53.470;9.832;2023-03-14T13:06:09;99303.56;;;8.05;80.60
8101;BME280;4093;53.470;9.832;2023-03-14T13:08:42;99315.84;;;8.24;78.98
8101;BME280;4093;53.470;9.832;2023-03-14T13:11:14;99320.50;;;8.13;75.14
8101;BME280;4093;53.470;9.832;2023-03-14T13:13:47;99327.97;;;8.20;71.30
8101;BME280;4093;53.470;9.832;2023-03-14T13:16:19;99345.94;;;8.78;69.41
8101;BME280;4093;53.470;9.832;2023-03-14T13:18:59;99323.44;;;8.56;66.25
8101;BME280;4093;53.470;9.832;2023-03-14T13:21:35;99348.06;;;8.37;65.52
8101;BME280;4093;53.470;9.832;2023-03-14T13:24:06;99361.59;;;8.16;64.11
8101;BME280;4093;53.470;9.832;2023-03-14T13:26:37;99348.88;;;8.39;61.91
8101;BME280;4093;53.470;9.832;2023-03-14T13:29:15;99358.63;;;8.84;61.94
8101;BME280;4093;53.470;9.832;2023-03-14T13:31:48;99374.34;;;9.01;61.77
8101;BME280;4093;53.470;9.832;2023-03-14T13:34:17;99380.56;;;9.21;61.71
8101;BME280;4093;53.470;9.832;2023-03-14T13:36:45;99373.31;;;9.07;61.91
8101;BME280;4093;53.470;9.832;2023-03-14T13:39:21;99380.19;;;8.82;62.42
8101;BME280;4093;53.470;9.832;2023-03-14T13:41:52;99346.06;;;8.47;61.35
8101;BME280;4093;53.470;9.832;2023-03-14T13:44:25;99383.03;;;8.72;62.06
8101;BME280;4093;53.470;9.832;2023-03-14T13:46:57;99375.63;;;8.62;62.28
8101;BME280;4093;53.470;9.832;2023-03-14T13:49:27;99366.47;;;8.79;62.99